Zawiercie, Poland
Current Conditions -  °F | °C
As of 6:00 PM on Thursday 27 Nov 2014 (Local Time) from EPKT Reporting Station
Broken Clouds Broken Clouds  
Wind Chill: 26°   Ceiling: 1900
Heat Index: 32°   Visibility: 6mi
Dew Point: 28°   Wind: 7mph
Humidity: 87%   Direction: 90°E
Pressure: 30.06"   Gusts: NA
Location:  50.49°N, 19.42°E
Report Text: EPKT 271600Z 09006KT 9999 SCT011 BKN019 00/M02 Q1018
Loading
Personal Weather Stations






























Interactive Weather Map New forecast layout! Learn more

10-Day Weather Forecast

Advertisements
Track Severe Weather on mobile